sensor_id;sensor_type;location;lat;lon;timestamp;temperature;humidity
62575;DHT22;53112;45.602;11.904;2022-10-31T00:03:48;16.40;66.70
62575;DHT22;53112;45.602;11.904;2022-10-31T00:06:16;16.40;66.30
62575;DHT22;53112;45.602;11.904;2022-10-31T00:08:46;16.40;65.90
62575;DHT22;53112;45.602;11.904;2022-10-31T00:11:13;16.50;64.70
62575;DHT22;53112;45.602;11.904;2022-10-31T00:13:39;16.40;64.30
62575;DHT22;53112;45.602;11.904;2022-10-31T00:16:05;16.50;64.80
62575;DHT22;53112;45.602;11.904;2022-10-31T00:18:31;16.10;68.00
62575;DHT22;53112;45.602;11.904;2022-10-31T00:21:03;16.20;66.20
62575;DHT22;53112;45.602;11.904;2022-10-31T00:23:30;16.20;66.60
62575;DHT22;53112;45.602;11.904;2022-10-31T00:26:05;16.20;65.70
62575;DHT22;53112;45.602;11.904;2022-10-31T00:28:32;16.30;65.00
62575;DHT22;53112;45.602;11.904;2022-10-31T00:31:00;16.30;64.90
62575;DHT22;53112;45.602;11.904;2022-10-31T00:33:27;16.40;64.20
62575;DHT22;53112;45.602;11.904;2022-10-31T00:35:53;16.40;64.20
62575;DHT22;53112;45.602;11.904;2022-10-31T00:38:19;16.20;66.40
62575;DHT22;53112;45.602;11.904;2022-10-31T00:40:45;16.00;67.00
62575;DHT22;53112;45.602;11.904;2022-10-31T00:43:11;15.70;70.80
62575;DHT22;53112;45.602;11.904;2022-10-31T00:45:36;15.60;70.60
62575;DHT22;53112;45.602;11.904;2022-10-31T00:48:03;15.70;69.00
62575;DHT22;53112;45.602;11.904;2022-10-31T00:50:29;15.90;67.30
62575;DHT22;53112;45.602;11.904;2022-10-31T00:52:54;16.00;66.10
62575;DHT22;53112;45.602;11.904;2022-10-31T00:55:20;16.10;65.60
62575;DHT22;53112;45.602;11.904;2022-10-31T00:57:47;16.20;65.20
62575;DHT22;53112;45.602;11.904;2022-10-31T01:00:14;16.20;64.60
62575;DHT22;53112;45.602;11.904;2022-10-31T01:02:40;16.20;64.30
62575;DHT22;53112;45.602;11.904;2022-10-31T01:05:06;16.10;64.90
62575;DHT22;53112;45.602;11.904;2022-10-31T01:07:36;16.00;65.60
62575;DHT22;53112;45.602;11.904;2022-10-31T01:10:03;16.10;65.00
62575;DHT22;53112;45.602;11.904;2022-10-31T01:12:29;16.00;67.10
62575;DHT22;53112;45.602;11.904;2022-10-31T01:14:55;15.80;67.40
62575;DHT22;53112;45.602;11.904;2022-10-31T01:17:21;15.80;66.60
62575;DHT22;53112;45.602;11.904;2022-10-31T01:19:47;15.70;67.60
62575;DHT22;53112;45.602;11.904;2022-10-31T01:22:12;15.60;67.70
62575;DHT22;53112;45.602;11.904;2022-10-31T01:24:38;15.80;66.60
62575;DHT22;53112;45.602;11.904;2022-10-31T01:27:04;15.90;65.90
62575;DHT22;53112;45.602;11.904;2022-10-31T01:29:30;15.90;65.20
62575;DHT22;53112;45.602;11.904;2022-10-31T01:31:56;16.00;65.10
62575;DHT22;53112;45.602;11.904;2022-10-31T01:34:21;15.90;65.50
62575;DHT22;53112;45.602;11.904;2022-10-31T01:36:48;15.80;66.90
62575;DHT22;53112;45.602;11.904;2022-10-31T01:39:17;15.60;66.20
62575;DHT22;53112;45.602;11.904;2022-10-31T01:41:47;15.80;65.10
62575;DHT22;53112;45.602;11.904;2022-10-31T01:46:53;15.80;64.70
62575;DHT22;53112;45.602;11.904;2022-10-31T01:49:38;15.80;65.20
62575;DHT22;53112;45.602;11.904;2022-10-31T01:52:25;15.80;65.40
62575;DHT22;53112;45.602;11.904;2022-10-31T01:55:32;15.70;65.70
62575;DHT22;53112;45.602;11.904;2022-10-31T01:58:04;15.40;67.40
62575;DHT22;53112;45.602;11.904;2022-10-31T02:00:32;15.20;67.50
62575;DHT22;53112;45.602;11.904;2022-10-31T02:02:58;15.10;69.30
62575;DHT22;53112;45.602;11.904;2022-10-31T02:05:28;15.00;69.00
62575;DHT22;53112;45.602;11.904;2022-10-31T02:10:31;15.20;67.70
62575;DHT22;53112;45.602;11.904;2022-10-31T02:13:00;15.50;66.60
62575;DHT22;53112;45.602;11.904;2022-10-31T02:15:28;15.50;66.10
62575;DHT22;53112;45.602;11.904;2022-10-31T02:17:55;15.50;66.90
62575;DHT22;53112;45.602;11.904;2022-10-31T02:20:23;15.40;66.00
62575;DHT22;53112;45.602;11.904;2022-10-31T02:29:07;15.10;69.50
62575;DHT22;53112;45.602;11.904;2022-10-31T02:34:00;15.00;70.50
62575;DHT22;53112;45.602;11.904;2022-10-31T02:37:19;15.10;68.70
62575;DHT22;53112;45.602;11.904;2022-10-31T02:39:24;15.00;70.10
62575;DHT22;53112;45.602;11.904;2022-10-31T02:42:01;15.00;69.30
62575;DHT22;53112;45.602;11.904;2022-10-31T02:47:33;15.30;66.70
62575;DHT22;53112;45.602;11.904;2022-10-31T02:50:12;15.40;65.70
62575;DHT22;53112;45.602;11.904;2022-10-31T02:52:40;15.40;67.30
62575;DHT22;53112;45.602;11.904;2022-10-31T02:57:48;15.30;65.30
62575;DHT22;53112;45.602;11.904;2022-10-31T03:00:14;15.30;65.90
62575;DHT22;53112;45.602;11.904;2022-10-31T03:10:52;14.60;70.20
62575;DHT22;53112;45.602;11.904;2022-10-31T03:13:41;14.70;70.90
62575;DHT22;53112;45.602;11.904;2022-10-31T03:19:23;14.90;68.90
62575;DHT22;53112;45.602;11.904;2022-10-31T03:21:56;15.10;67.00
62575;DHT22;53112;45.602;11.904;2022-10-31T03:24:30;15.10;66.40
62575;DHT22;53112;45.602;11.904;2022-10-31T03:26:59;15.20;65.90
62575;DHT22;53112;45.602;11.904;2022-10-31T03:29:29;15.20;65.90
62575;DHT22;53112;45.602;11.904;2022-10-31T03:32:02;15.20;65.70
62575;DHT22;53112;45.602;11.904;2022-10-31T03:34:30;15.20;65.40
62575;DHT22;53112;45.602;11.904;2022-10-31T03:37:00;15.20;65.40
62575;DHT22;53112;45.602;11.904;2022-10-31T03:39:28;15.20;65.10
62575;DHT22;53112;45.602;11.904;2022-10-31T03:42:10;15.20;65.30
62575;DHT22;53112;45.602;11.904;2022-10-31T03:44:38;15.00;66.30
62575;DHT22;53112;45.602;11.904;2022-10-31T03:47:07;15.00;66.10
62575;DHT22;53112;45.602;11.904;2022-10-31T03:49:34;15.00;65.60
62575;DHT22;53112;45.602;11.904;2022-10-31T03:55:07;15.00;65.30
62575;DHT22;53112;45.602;11.904;2022-10-31T04:00:14;15.10;65.10
62575;DHT22;53112;45.602;11.904;2022-10-31T04:02:55;15.10;65.00
62575;DHT22;53112;45.602;11.904;2022-10-31T04:05:23;15.00;64.90
62575;DHT22;53112;45.602;11.904;2022-10-31T04:07:53;15.00;64.90
62575;DHT22;53112;45.602;11.904;2022-10-31T04:10:21;15.00;64.70
62575;DHT22;53112;45.602;11.904;2022-10-31T04:12:52;15.00;64.70
62575;DHT22;53112;45.602;11.904;2022-10-31T04:15:20;14.90;65.40
62575;DHT22;53112;45.602;11.904;2022-10-31T04:17:47;14.80;66.70
62575;DHT22;53112;45.602;11.904;2022-10-31T04:20:17;14.70;65.70
62575;DHT22;53112;45.602;11.904;2022-10-31T04:22:43;14.30;68.70
62575;DHT22;53112;45.602;11.904;2022-10-31T04:25:10;14.00;70.40
62575;DHT22;53112;45.602;11.904;2022-10-31T04:27:36;13.90;71.20
62575;DHT22;53112;45.602;11.904;2022-10-31T04:30:02;14.00;70.50
62575;DHT22;53112;45.602;11.904;2022-10-31T04:32:28;14.10;70.50
62575;DHT22;53112;45.602;11.904;2022-10-31T04:34:54;14.30;68.60
62575;DHT22;53112;45.602;11.904;2022-10-31T04:37:20;14.50;67.60
62575;DHT22;53112;45.602;11.904;2022-10-31T04:39:46;14.20;69.20
62575;DHT22;53112;45.602;11.904;2022-10-31T04:42:12;14.30;69.10
62575;DHT22;53112;45.602;11.904;2022-10-31T04:44:38;14.30;68.40
62575;DHT22;53112;45.602;11.904;2022-10-31T04:47:04;14.30;69.10
62575;DHT22;53112;45.602;11.904;2022-10-31T04:49:30;14.10;69.60
62575;DHT22;53112;45.602;11.904;2022-10-31T04:51:56;14.10;69.70
62575;DHT22;53112;45.602;11.904;2022-10-31T04:54:22;14.10;69.80
62575;DHT22;53112;45.602;11.904;2022-10-31T04:56:48;14.20;69.30
62575;DHT22;53112;45.602;11.904;2022-10-31T04:59:14;14.20;68.40
62575;DHT22;53112;45.602;11.904;2022-10-31T05:01:40;14.10;69.60
62575;DHT22;53112;45.602;11.904;2022-10-31T05:04:06;14.00;70.30
62575;DHT22;53112;45.602;11.904;2022-10-31T05:06:32;14.20;68.90
62575;DHT22;53112;45.602;11.904;2022-10-31T05:08:58;14.40;68.00
62575;DHT22;53112;45.602;11.904;2022-10-31T05:11:24;14.50;67.30
62575;DHT22;53112;45.602;11.904;2022-10-31T05:13:50;14.50;66.80
62575;DHT22;53112;45.602;11.904;2022-10-31T05:16:16;14.50;66.40
62575;DHT22;53112;45.602;11.904;2022-10-31T05:18:42;14.60;65.90
62575;DHT22;53112;45.602;11.904;2022-10-31T05:21:08;14.60;65.80
62575;DHT22;53112;45.602;11.904;2022-10-31T05:23:34;14.60;66.10
62575;DHT22;53112;45.602;11.904;2022-10-31T05:26:00;14.50;66.50
62575;DHT22;53112;45.602;11.904;2022-10-31T05:28:26;14.40;67.40
62575;DHT22;53112;45.602;11.904;2022-10-31T05:30:52;14.20;67.50
62575;DHT22;53112;45.602;11.904;2022-10-31T05:33:18;14.10;67.70
62575;DHT22;53112;45.602;11.904;2022-10-31T05:35:44;14.30;67.10
62575;DHT22;53112;45.602;11.904;2022-10-31T05:38:09;14.40;66.60
62575;DHT22;53112;45.602;11.904;2022-10-31T05:40:35;14.50;66.10
62575;DHT22;53112;45.602;11.904;2022-10-31T05:43:01;14.50;65.80
62575;DHT22;53112;45.602;11.904;2022-10-31T05:45:27;14.50;66.90
62575;DHT22;53112;45.602;11.904;2022-10-31T05:47:56;14.30;67.90
62575;DHT22;53112;45.602;11.904;2022-10-31T05:50:23;14.20;68.20
62575;DHT22;53112;45.602;11.904;2022-10-31T05:52:58;14.00;69.20
62575;DHT22;53112;45.602;11.904;2022-10-31T05:55:25;13.80;70.70
62575;DHT22;53112;45.602;11.904;2022-10-31T05:57:53;13.90;70.30
62575;DHT22;53112;45.602;11.904;2022-10-31T06:00:20;13.90;70.30
62575;DHT22;53112;45.602;11.904;2022-10-31T06:02:46;13.90;70.90
62575;DHT22;53112;45.602;11.904;2022-10-31T06:05:13;14.00;70.20
62575;DHT22;53112;45.602;11.904;2022-10-31T06:07:39;13.90;70.80
62575;DHT22;53112;45.602;11.904;2022-10-31T06:10:06;14.10;69.60
62575;DHT22;53112;45.602;11.904;2022-10-31T06:12:34;14.40;68.00
62575;DHT22;53112;45.602;11.904;2022-10-31T06:15:07;14.60;67.20
62575;DHT22;53112;45.602;11.904;2022-10-31T06:17:35;14.80;66.40
62575;DHT22;53112;45.602;11.904;2022-10-31T06:20:01;15.00;65.70
62575;DHT22;53112;45.602;11.904;2022-10-31T06:22:28;15.00;65.50
62575;DHT22;53112;45.602;11.904;2022-10-31T06:24:54;14.90;64.60
62575;DHT22;53112;45.602;11.904;2022-10-31T06:27:19;14.80;64.50
62575;DHT22;53112;45.602;11.904;2022-10-31T06:29:46;14.80;65.60
62575;DHT22;53112;45.602;11.904;2022-10-31T06:32:13;15.00;65.60
62575;DHT22;53112;45.602;11.904;2022-10-31T06:34:40;15.20;65.60
62575;DHT22;53112;45.602;11.904;2022-10-31T06:37:07;15.30;65.10
62575;DHT22;53112;45.602;11.904;2022-10-31T06:39:34;15.60;64.40
62575;DHT22;53112;45.602;11.904;2022-10-31T06:42:00;15.70;64.70
62575;DHT22;53112;45.602;11.904;2022-10-31T06:44:26;15.90;63.60
62575;DHT22;53112;45.602;11.904;2022-10-31T06:46:52;16.10;63.20
62575;DHT22;53112;45.602;11.904;2022-10-31T06:49:18;16.30;63.80
62575;DHT22;53112;45.602;11.904;2022-10-31T06:51:48;16.50;63.50
62575;DHT22;53112;45.602;11.904;2022-10-31T06:54:15;16.80;63.00
62575;DHT22;53112;45.602;11.904;2022-10-31T06:56:41;16.90;62.70
62575;DHT22;53112;45.602;11.904;2022-10-31T06:59:07;16.60;65.20
62575;DHT22;53112;45.602;11.904;2022-10-31T07:01:33;16.40;65.70
62575;DHT22;53112;45.602;11.904;2022-10-31T07:03:59;16.50;64.90
62575;DHT22;53112;45.602;11.904;2022-10-31T07:06:25;16.70;64.70
62575;DHT22;53112;45.602;11.904;2022-10-31T07:08:51;16.70;65.50
62575;DHT22;53112;45.602;11.904;2022-10-31T07:11:17;17.00;64.60
62575;DHT22;53112;45.602;11.904;2022-10-31T07:13:43;17.20;63.40
62575;DHT22;53112;45.602;11.904;2022-10-31T07:16:09;17.20;64.70
62575;DHT22;53112;45.602;11.904;2022-10-31T07:18:39;17.20;65.30
62575;DHT22;53112;45.602;11.904;2022-10-31T07:21:05;17.70;64.30
62575;DHT22;53112;45.602;11.904;2022-10-31T07:23:32;18.00;63.50
62575;DHT22;53112;45.602;11.904;2022-10-31T07:25:58;18.10;63.10
62575;DHT22;53112;45.602;11.904;2022-10-31T07:28:26;18.20;62.70
62575;DHT22;53112;45.602;11.904;2022-10-31T07:30:53;18.30;63.30
62575;DHT22;53112;45.602;11.904;2022-10-31T07:33:20;18.30;62.80
62575;DHT22;53112;45.602;11.904;2022-10-31T07:35:46;18.50;63.60
62575;DHT22;53112;45.602;11.904;2022-10-31T07:38:14;18.50;63.50
62575;DHT22;53112;45.602;11.904;2022-10-31T07:40:41;18.70;63.00
62575;DHT22;53112;45.602;11.904;2022-10-31T07:43:08;18.90;62.90
62575;DHT22;53112;45.602;11.904;2022-10-31T07:45:34;19.10;62.80
62575;DHT22;53112;45.602;11.904;2022-10-31T07:47:59;19.20;62.70
62575;DHT22;53112;45.602;11.904;2022-10-31T07:50:28;19.40;62.20
62575;DHT22;53112;45.602;11.904;2022-10-31T07:53:10;19.60;61.70
62575;DHT22;53112;45.602;11.904;2022-10-31T07:55:37;19.80;61.40
62575;DHT22;53112;45.602;11.904;2022-10-31T07:58:06;19.90;61.10
62575;DHT22;53112;45.602;11.904;2022-10-31T08:00:34;20.10;60.70
62575;DHT22;53112;45.602;11.904;2022-10-31T08:03:02;20.30;60.30
62575;DHT22;53112;45.602;11.904;2022-10-31T08:05:29;20.40;60.10
62575;DHT22;53112;45.602;11.904;2022-10-31T08:07:56;20.60;59.90
62575;DHT22;53112;45.602;11.904;2022-10-31T08:10:24;20.60;59.80
62575;DHT22;53112;45.602;11.904;2022-10-31T08:13:08;20.80;59.60
62575;DHT22;53112;45.602;11.904;2022-10-31T08:15:35;21.00;59.50
62575;DHT22;53112;45.602;11.904;2022-10-31T08:18:04;21.00;59.40
62575;DHT22;53112;45.602;11.904;2022-10-31T08:20:30;21.20;59.10
62575;DHT22;53112;45.602;11.904;2022-10-31T08:22:58;21.60;58.40
62575;DHT22;53112;45.602;11.904;2022-10-31T08:25:26;21.90;57.70
62575;DHT22;53112;45.602;11.904;2022-10-31T08:27:54;22.40;56.60
62575;DHT22;53112;45.602;11.904;2022-10-31T08:30:22;23.00;54.80
62575;DHT22;53112;45.602;11.904;2022-10-31T08:32:58;23.40;53.50
62575;DHT22;53112;45.602;11.904;2022-10-31T08:35:24;23.90;52.70
62575;DHT22;53112;45.602;11.904;2022-10-31T08:37:56;24.10;52.70
62575;DHT22;53112;45.602;11.904;2022-10-31T08:40:23;24.50;52.00
62575;DHT22;53112;45.602;11.904;2022-10-31T08:42:57;24.80;50.30
62575;DHT22;53112;45.602;11.904;2022-10-31T08:45:23;25.30;49.40
62575;DHT22;53112;45.602;11.904;2022-10-31T08:47:49;25.60;49.50
62575;DHT22;53112;45.602;11.904;2022-10-31T08:50:15;25.70;49.40
62575;DHT22;53112;45.602;11.904;2022-10-31T08:52:41;26.10;48.50
62575;DHT22;53112;45.602;11.904;2022-10-31T08:55:07;26.20;47.80
62575;DHT22;53112;45.602;11.904;2022-10-31T08:57:34;26.10;47.60
62575;DHT22;53112;45.602;11.904;2022-10-31T09:00:00;26.80;46.00
62575;DHT22;53112;45.602;11.904;2022-10-31T09:02:26;27.20;45.50
62575;DHT22;53112;45.602;11.904;2022-10-31T09:04:51;27.40;44.30
62575;DHT22;53112;45.602;11.904;2022-10-31T09:07:17;27.30;43.20
62575;DHT22;53112;45.602;11.904;2022-10-31T09:09:43;27.20;43.70
62575;DHT22;53112;45.602;11.904;2022-10-31T09:12:09;27.70;41.70
62575;DHT22;53112;45.602;11.904;2022-10-31T09:14:35;28.10;42.90
62575;DHT22;53112;45.602;11.904;2022-10-31T09:17:01;28.10;42.20
62575;DHT22;53112;45.602;11.904;2022-10-31T09:19:27;28.60;41.90
62575;DHT22;53112;45.602;11.904;2022-10-31T09:21:53;29.30;40.30
62575;DHT22;53112;45.602;11.904;2022-10-31T09:24:20;29.40;40.20
62575;DHT22;53112;45.602;11.904;2022-10-31T09:26:46;30.00;39.80
62575;DHT22;53112;45.602;11.904;2022-10-31T09:29:12;30.00;38.90
62575;DHT22;53112;45.602;11.904;2022-10-31T09:31:38;29.30;39.50
62575;DHT22;53112;45.602;11.904;2022-10-31T09:34:04;30.00;39.60
62575;DHT22;53112;45.602;11.904;2022-10-31T09:36:30;30.00;38.20
62575;DHT22;53112;45.602;11.904;2022-10-31T09:38:56;30.10;39.00
62575;DHT22;53112;45.602;11.904;2022-10-31T09:41:48;30.40;38.80
62575;DHT22;53112;45.602;11.904;2022-10-31T09:47:04;30.90;37.70
62575;DHT22;53112;45.602;11.904;2022-10-31T09:49:53;30.70;36.50
62575;DHT22;53112;45.602;11.904;2022-10-31T09:52:24;29.30;37.20
62575;DHT22;53112;45.602;11.904;2022-10-31T09:54:57;28.20;39.10
62575;DHT22;53112;45.602;11.904;2022-10-31T09:57:33;28.60;39.60
62575;DHT22;53112;45.602;11.904;2022-10-31T10:00:02;29.30;37.30
62575;DHT22;53112;45.602;11.904;2022-10-31T10:02:48;28.60;38.60
62575;DHT22;53112;45.602;11.904;2022-10-31T10:05:26;29.20;36.90
62575;DHT22;53112;45.602;11.904;2022-10-31T10:08:05;29.10;37.60
62575;DHT22;53112;45.602;11.904;2022-10-31T10:13:28;30.00;35.90
62575;DHT22;53112;45.602;11.904;2022-10-31T10:16:35;30.40;34.10
62575;DHT22;53112;45.602;11.904;2022-10-31T10:22:14;32.10;33.10
62575;DHT22;53112;45.602;11.904;2022-10-31T10:27:50;32.70;31.80
62575;DHT22;53112;45.602;11.904;2022-10-31T10:30:19;33.00;33.40
62575;DHT22;53112;45.602;11.904;2022-10-31T10:33:09;32.60;33.60
62575;DHT22;53112;45.602;11.904;2022-10-31T10:35:43;33.50;31.00
62575;DHT22;53112;45.602;11.904;2022-10-31T10:38:34;34.30;31.40
62575;DHT22;53112;45.602;11.904;2022-10-31T10:41:05;34.50;30.60
62575;DHT22;53112;45.602;11.904;2022-10-31T10:43:38;35.30;30.60
62575;DHT22;53112;45.602;11.904;2022-10-31T10:46:56;35.60;29.10
62575;DHT22;53112;45.602;11.904;2022-10-31T10:49:51;35.60;28.20
62575;DHT22;53112;45.602;11.904;2022-10-31T10:54:59;35.90;28.10
62575;DHT22;53112;45.602;11.904;2022-10-31T11:00:20;36.40;27.90
62575;DHT22;53112;45.602;11.904;2022-10-31T11:02:46;36.10;26.60
62575;DHT22;53112;45.602;11.904;2022-10-31T11:05:24;35.60;28.80
62575;DHT22;53112;45.602;11.904;2022-10-31T11:07:51;37.20;27.20
62575;DHT22;53112;45.602;11.904;2022-10-31T11:10:17;37.90;26.60
62575;DHT22;53112;45.602;11.904;2022-10-31T11:12:58;38.00;26.40
62575;DHT22;53112;45.602;11.904;2022-10-31T11:15:25;38.70;25.60
62575;DHT22;53112;45.602;11.904;2022-10-31T11:17:55;39.10;25.10
62575;DHT22;53112;45.602;11.904;2022-10-31T11:20:34;38.90;24.10
62575;DHT22;53112;45.602;11.904;2022-10-31T11:23:15;38.80;25.10
62575;DHT22;53112;45.602;11.904;2022-10-31T11:26:00;39.30;25.00
62575;DHT22;53112;45.602;11.904;2022-10-31T11:28:27;39.00;22.90
62575;DHT22;53112;45.602;11.904;2022-10-31T11:31:13;38.50;25.80
62575;DHT22;53112;45.602;11.904;2022-10-31T11:33:47;39.30;25.10
62575;DHT22;53112;45.602;11.904;2022-10-31T11:36:25;39.30;24.10
62575;DHT22;53112;45.602;11.904;2022-10-31T11:38:53;39.40;24.40
62575;DHT22;53112;45.602;11.904;2022-10-31T11:41:36;39.50;24.70
62575;DHT22;53112;45.602;11.904;2022-10-31T11:44:22;39.30;23.90
62575;DHT22;53112;45.602;11.904;2022-10-31T11:47:00;38.40;24.50
62575;DHT22;53112;45.602;11.904;2022-10-31T11:49:38;39.00;25.40
62575;DHT22;53112;45.602;11.904;2022-10-31T11:52:08;39.20;24.70
62575;DHT22;53112;45.602;11.904;2022-10-31T11:55:02;39.40;24.30
62575;DHT22;53112;45.602;11.904;2022-10-31T11:57:55;39.10;23.40
62575;DHT22;53112;45.602;11.904;2022-10-31T12:00:26;38.60;24.80
62575;DHT22;53112;45.602;11.904;2022-10-31T12:03:14;38.70;25.50
62575;DHT22;53112;45.602;11.904;2022-10-31T12:05:43;38.60;24.60
62575;DHT22;53112;45.602;11.904;2022-10-31T12:08:12;37.70;26.80
62575;DHT22;53112;45.602;11.904;2022-10-31T12:19:45;38.80;25.50
62575;DHT22;53112;45.602;11.904;2022-10-31T12:22:12;38.60;25.10
62575;DHT22;53112;45.602;11.904;2022-10-31T12:24:58;39.20;25.10
62575;DHT22;53112;45.602;11.904;2022-10-31T12:30:19;39.30;23.70
62575;DHT22;53112;45.602;11.904;2022-10-31T12:38:29;40.60;22.40
62575;DHT22;53112;45.602;11.904;2022-10-31T12:41:12;41.10;23.20
62575;DHT22;53112;45.602;11.904;2022-10-31T12:46:29;39.40;23.40
62575;DHT22;53112;45.602;11.904;2022-10-31T12:49:16;38.80;23.60
62575;DHT22;53112;45.602;11.904;2022-10-31T12:52:01;40.40;22.50
62575;DHT22;53112;45.602;11.904;2022-10-31T12:57:23;40.90;21.20
62575;DHT22;53112;45.602;11.904;2022-10-31T13:02:58;42.20;20.60
62575;DHT22;53112;45.602;11.904;2022-10-31T13:05:41;42.50;20.60
62575;DHT22;53112;45.602;11.904;2022-10-31T13:08:33;42.80;19.80
62575;DHT22;53112;45.602;11.904;2022-10-31T13:11:03;43.30;18.90
62575;DHT22;53112;45.602;11.904;2022-10-31T13:13:47;43.40;20.10
62575;DHT22;53112;45.602;11.904;2022-10-31T13:16:19;42.60;19.70
62575;DHT22;53112;45.602;11.904;2022-10-31T13:21:49;40.60;20.60
62575;DHT22;53112;45.602;11.904;2022-10-31T13:24:23;41.80;20.40
62575;DHT22;53112;45.602;11.904;2022-10-31T13:26:56;41.20;20.80
62575;DHT22;53112;45.602;11.904;2022-10-31T13:31:50;40.80;20.70
62575;DHT22;53112;45.602;11.904;2022-10-31T13:34:23;41.30;20.90
62575;DHT22;53112;45.602;11.904;2022-10-31T13:43:23;38.50;22.90
62575;DHT22;53112;45.602;11.904;2022-10-31T13:45:54;39.10;21.70
62575;DHT22;53112;45.602;11.904;2022-10-31T13:48:35;38.50;22.50
62575;DHT22;53112;45.602;11.904;2022-10-31T13:51:05;37.60;23.20
62575;DHT22;53112;45.602;11.904;2022-10-31T13:56:28;39.30;23.00
62575;DHT22;53112;45.602;11.904;2022-10-31T14:01:35;44.20;18.70
62575;DHT22;53112;45.602;11.904;2022-10-31T14:04:06;45.30;17.20
62575;DHT22;53112;45.602;11.904;2022-10-31T14:09:39;45.90;16.60
62575;DHT22;53112;45.602;11.904;2022-10-31T14:15:05;47.50;15.80
62575;DHT22;53112;45.602;11.904;2022-10-31T14:18:00;48.00;15.90
62575;DHT22;53112;45.602;11.904;2022-10-31T14:20:40;47.80;15.80
62575;DHT22;53112;45.602;11.904;2022-10-31T14:25:50;46.70;16.90
62575;DHT22;53112;45.602;11.904;2022-10-31T14:28:20;45.90;17.70
62575;DHT22;53112;45.602;11.904;2022-10-31T14:30:55;44.60;19.10
62575;DHT22;53112;45.602;11.904;2022-10-31T14:33:24;42.90;19.20
62575;DHT22;53112;45.602;11.904;2022-10-31T14:36:00;40.50;22.00
62575;DHT22;53112;45.602;11.904;2022-10-31T14:41:17;37.80;24.30
62575;DHT22;53112;45.602;11.904;2022-10-31T14:52:36;34.90;27.30
62575;DHT22;53112;45.602;11.904;2022-10-31T14:55:06;34.40;28.10
62575;DHT22;53112;45.602;11.904;2022-10-31T14:57:36;34.10;28.70
62575;DHT22;53112;45.602;11.904;2022-10-31T15:00:17;33.70;29.20
62575;DHT22;53112;45.602;11.904;2022-10-31T15:03:12;33.30;29.80
62575;DHT22;53112;45.602;11.904;2022-10-31T15:05:50;33.00;30.50
62575;DHT22;53112;45.602;11.904;2022-10-31T15:08:37;32.80;31.00
62575;DHT22;53112;45.602;11.904;2022-10-31T15:11:17;32.60;31.50
62575;DHT22;53112;45.602;11.904;2022-10-31T15:13:44;32.30;32.00
62575;DHT22;53112;45.602;11.904;2022-10-31T15:16:12;31.90;32.20
62575;DHT22;53112;45.602;11.904;2022-10-31T15:21:21;31.10;34.20
62575;DHT22;53112;45.602;11.904;2022-10-31T15:23:50;30.90;34.20
62575;DHT22;53112;45.602;11.904;2022-10-31T15:26:20;30.60;34.50
62575;DHT22;53112;45.602;11.904;2022-10-31T15:28:57;30.30;35.10
62575;DHT22;53112;45.602;11.904;2022-10-31T15:31:23;30.30;35.10
62575;DHT22;53112;45.602;11.904;2022-10-31T15:33:49;30.30;35.20
62575;DHT22;53112;45.602;11.904;2022-10-31T15:36:24;30.00;35.60
62575;DHT22;53112;45.602;11.904;2022-10-31T15:38:50;29.80;36.10
62575;DHT22;53112;45.602;11.904;2022-10-31T15:41:37;29.50;36.30
62575;DHT22;53112;45.602;11.904;2022-10-31T15:44:18;29.20;37.30
62575;DHT22;53112;45.602;11.904;2022-10-31T15:49:42;28.80;37.70
62575;DHT22;53112;45.602;11.904;2022-10-31T15:54:57;28.00;39.70
62575;DHT22;53112;45.602;11.904;2022-10-31T15:57:25;27.70;39.90
62575;DHT22;53112;45.602;11.904;2022-10-31T15:59:52;27.40;40.20
62575;DHT22;53112;45.602;11.904;2022-10-31T16:02:22;27.20;40.50
62575;DHT22;53112;45.602;11.904;2022-10-31T16:04:55;27.00;41.10
62575;DHT22;53112;45.602;11.904;2022-10-31T16:07:22;26.60;42.10
62575;DHT22;53112;45.602;11.904;2022-10-31T16:09:58;26.40;42.50
62575;DHT22;53112;45.602;11.904;2022-10-31T16:12:35;26.10;43.20
62575;DHT22;53112;45.602;11.904;2022-10-31T16:15:02;26.10;42.70
62575;DHT22;53112;45.602;11.904;2022-10-31T16:17:29;26.00;43.00
62575;DHT22;53112;45.602;11.904;2022-10-31T16:20:04;25.90;43.10
62575;DHT22;53112;45.602;11.904;2022-10-31T16:22:34;25.10;46.50
62575;DHT22;53112;45.602;11.904;2022-10-31T16:25:24;24.30;48.70
62575;DHT22;53112;45.602;11.904;2022-10-31T16:27:52;24.00;50.00
62575;DHT22;53112;45.602;11.904;2022-10-31T16:30:39;24.10;47.90
62575;DHT22;53112;45.602;11.904;2022-10-31T16:33:28;24.40;47.50
62575;DHT22;53112;45.602;11.904;2022-10-31T16:35:56;24.30;48.50
62575;DHT22;53112;45.602;11.904;2022-10-31T16:38:22;24.10;47.80
62575;DHT22;53112;45.602;11.904;2022-10-31T16:40:49;23.20;51.80
62575;DHT22;53112;45.602;11.904;2022-10-31T16:43:17;23.10;51.10
62575;DHT22;53112;45.602;11.904;2022-10-31T16:45:49;23.30;50.10
62575;DHT22;53112;45.602;11.904;2022-10-31T16:48:21;23.20;50.80
62575;DHT22;53112;45.602;11.904;2022-10-31T16:50:49;23.00;51.50
62575;DHT22;53112;45.602;11.904;2022-10-31T16:53:16;22.80;51.90
62575;DHT22;53112;45.602;11.904;2022-10-31T16:58:18;23.10;49.90
62575;DHT22;53112;45.602;11.904;2022-10-31T17:00:45;23.20;49.60
62575;DHT22;53112;45.602;11.904;2022-10-31T17:03:11;23.20;49.60
62575;DHT22;53112;45.602;11.904;2022-10-31T17:05:37;23.10;49.70
62575;DHT22;53112;45.602;11.904;2022-10-31T17:08:03;22.70;51.90
62575;DHT22;53112;45.602;11.904;2022-10-31T17:10:29;22.80;50.50
62575;DHT22;53112;45.602;11.904;2022-10-31T17:12:56;22.60;51.00
62575;DHT22;53112;45.602;11.904;2022-10-31T17:15:27;22.50;51.40
62575;DHT22;53112;45.602;11.904;2022-10-31T17:17:53;22.50;50.80
62575;DHT22;53112;45.602;11.904;2022-10-31T17:20:26;22.50;50.80
62575;DHT22;53112;45.602;11.904;2022-10-31T17:22:53;22.50;50.80
62575;DHT22;53112;45.602;11.904;2022-10-31T17:25:25;22.40;51.00
62575;DHT22;53112;45.602;11.904;2022-10-31T17:27:51;22.20;51.40
62575;DHT22;53112;45.602;11.904;2022-10-31T17:30:19;22.10;51.70
62575;DHT22;53112;45.602;11.904;2022-10-31T17:32:47;22.00;52.10
62575;DHT22;53112;45.602;11.904;2022-10-31T17:35:15;21.90;52.10
62575;DHT22;53112;45.602;11.904;2022-10-31T17:37:43;21.90;52.10
62575;DHT22;53112;45.602;11.904;2022-10-31T17:40:11;21.90;51.90
62575;DHT22;53112;45.602;11.904;2022-10-31T17:42:37;21.50;54.80
62575;DHT22;53112;45.602;11.904;2022-10-31T17:45:05;20.80;56.20
62575;DHT22;53112;45.602;11.904;2022-10-31T17:47:31;20.60;58.50